createdAt,value
2023-07-25T00:00:35.497Z,17.40
2023-07-25T00:03:02.441Z,17.40
2023-07-25T00:05:36.273Z,17.30
2023-07-25T00:08:09.210Z,17.30
2023-07-25T00:10:36.023Z,17.20
2023-07-25T00:13:02.885Z,17.20
2023-07-25T00:15:30.168Z,17.20
2023-07-25T00:18:00.199Z,17.20
2023-07-25T00:20:27.237Z,17.10
2023-07-25T00:23:01.434Z,17.00
2023-07-25T00:25:28.315Z,17.00
2023-07-25T00:27:55.169Z,17.00
2023-07-25T00:30:22.638Z,17.00
2023-07-25T00:32:49.576Z,16.90
2023-07-25T00:35:16.565Z,16.80
2023-07-25T00:37:43.426Z,16.70
2023-07-25T00:40:10.549Z,16.70
2023-07-25T00:42:41.072Z,16.70
2023-07-25T00:45:08.758Z,16.70
2023-07-25T00:47:35.663Z,16.70
2023-07-25T00:50:02.816Z,16.70
2023-07-25T00:52:29.654Z,16.70
2023-07-25T00:54:56.577Z,16.70
2023-07-25T00:57:23.531Z,16.70
2023-07-25T00:59:50.355Z,16.60
2023-07-25T01:02:17.761Z,16.70
2023-07-25T01:04:45.129Z,16.60
2023-07-25T01:07:14.203Z,16.60
2023-07-25T01:09:42.933Z,16.50
2023-07-25T01:12:11.269Z,16.50
2023-07-25T01:14:39.771Z,16.50
2023-07-25T01:17:19.290Z,16.40
2023-07-25T01:19:47.875Z,16.30
2023-07-25T01:22:15.261Z,16.30
2023-07-25T01:24:48.072Z,16.20
2023-07-25T01:27:15.807Z,16.20
2023-07-25T01:29:42.772Z,16.20
2023-07-25T01:32:10.522Z,16.20
2023-07-25T01:34:37.676Z,16.10
2023-07-25T01:37:06.290Z,16.10
2023-07-25T01:39:33.105Z,16.10
2023-07-25T01:41:59.992Z,16.00
2023-07-25T01:44:26.776Z,16.00
2023-07-25T01:46:58.164Z,16.00
2023-07-25T01:49:25.117Z,16.00
2023-07-25T01:51:52.994Z,15.90
2023-07-25T01:54:20.078Z,15.90
2023-07-25T01:56:50.294Z,15.90
2023-07-25T01:59:19.044Z,15.80
2023-07-25T02:01:46.008Z,15.80
2023-07-25T02:04:13.548Z,15.80
2023-07-25T02:06:40.576Z,15.80
2023-07-25T02:09:07.525Z,15.80
2023-07-25T02:11:34.447Z,15.80
2023-07-25T02:14:01.584Z,15.80
2023-07-25T02:16:28.455Z,15.80
2023-07-25T02:18:55.388Z,15.80
2023-07-25T02:21:22.351Z,15.90
2023-07-25T02:23:49.173Z,15.90
2023-07-25T02:26:16.023Z,15.90
2023-07-25T02:28:42.860Z,16.00
2023-07-25T02:31:09.791Z,16.00
2023-07-25T02:33:36.698Z,16.00
2023-07-25T02:36:03.689Z,16.00
2023-07-25T02:38:30.566Z,16.00
2023-07-25T02:40:57.431Z,15.90
2023-07-25T02:43:24.382Z,15.80
2023-07-25T02:45:52.287Z,15.70
2023-07-25T02:48:20.503Z,15.70
2023-07-25T02:50:47.533Z,15.70
2023-07-25T02:53:14.612Z,15.80
2023-07-25T02:55:41.546Z,15.90
2023-07-25T02:58:08.543Z,16.00
2023-07-25T03:00:36.122Z,16.10
2023-07-25T03:03:04.627Z,16.10
2023-07-25T03:05:31.465Z,16.10
2023-07-25T03:07:58.708Z,16.20
2023-07-25T03:10:25.739Z,16.20
2023-07-25T03:12:53.868Z,16.20
2023-07-25T03:15:21.429Z,16.20
2023-07-25T03:17:48.418Z,16.30
2023-07-25T03:20:15.445Z,16.30
2023-07-25T03:22:42.444Z,16.30
2023-07-25T03:25:09.776Z,16.40
2023-07-25T03:27:37.242Z,16.40
2023-07-25T03:30:05.280Z,16.50
2023-07-25T03:32:35.851Z,16.60
2023-07-25T03:35:03.544Z,16.60
2023-07-25T03:37:30.328Z,16.60
2023-07-25T03:39:57.289Z,16.60
2023-07-25T03:42:24.294Z,16.60
2023-07-25T03:44:52.685Z,16.60
2023-07-25T03:47:22.289Z,16.60
2023-07-25T03:49:50.177Z,16.60
2023-07-25T03:52:17.074Z,16.60
2023-07-25T03:54:43.866Z,16.60
2023-07-25T03:57:10.827Z,16.60
2023-07-25T03:59:37.700Z,16.60
2023-07-25T04:02:04.854Z,16.60
2023-07-25T04:04:31.845Z,16.60
2023-07-25T04:06:58.742Z,16.60
2023-07-25T04:09:25.521Z,16.50
2023-07-25T04:11:52.387Z,16.50
2023-07-25T04:14:19.217Z,16.40
2023-07-25T04:16:45.974Z,16.30
2023-07-25T04:19:12.952Z,16.30
2023-07-25T04:21:39.880Z,16.20
2023-07-25T04:24:06.869Z,16.20
2023-07-25T04:26:33.861Z,16.10
2023-07-25T04:29:00.629Z,16.10
2023-07-25T04:31:27.500Z,16.20
2023-07-25T04:33:54.363Z,16.30
2023-07-25T04:36:21.270Z,16.40
2023-07-25T04:38:48.239Z,16.50
2023-07-25T04:41:15.008Z,16.60
2023-07-25T04:43:41.781Z,16.70
2023-07-25T04:46:08.690Z,16.70
2023-07-25T04:48:35.533Z,16.70
2023-07-25T04:51:02.331Z,16.70
2023-07-25T04:53:29.121Z,16.80
2023-07-25T04:55:55.928Z,16.90
2023-07-25T04:58:22.773Z,17.00
2023-07-25T05:00:49.540Z,17.10
2023-07-25T05:03:16.492Z,17.10
2023-07-25T05:05:43.369Z,17.10
2023-07-25T05:08:10.198Z,17.00
2023-07-25T05:10:37.085Z,17.00
2023-07-25T05:13:03.891Z,17.00
2023-07-25T05:15:30.741Z,17.00
2023-07-25T05:17:57.539Z,17.00
2023-07-25T05:20:24.437Z,17.00
2023-07-25T05:22:51.809Z,17.00
2023-07-25T05:25:18.591Z,17.00
2023-07-25T05:27:45.454Z,17.00
2023-07-25T05:30:12.423Z,17.10
2023-07-25T05:32:40.484Z,17.20
2023-07-25T05:35:07.589Z,17.40
2023-07-25T05:37:39.195Z,17.50
2023-07-25T05:40:07.089Z,17.60
2023-07-25T05:42:34.121Z,17.70
2023-07-25T05:45:01.447Z,17.90
2023-07-25T05:47:29.117Z,18.00
2023-07-25T05:49:57.630Z,18.10
2023-07-25T05:52:24.469Z,18.20
2023-07-25T05:54:52.426Z,18.30
2023-07-25T05:57:19.498Z,18.40
2023-07-25T05:59:46.592Z,18.50
2023-07-25T06:02:13.597Z,18.60
2023-07-25T06:04:40.443Z,18.70
2023-07-25T06:07:07.589Z,18.80
2023-07-25T06:09:34.533Z,18.90
2023-07-25T06:12:01.535Z,18.90
2023-07-25T06:14:28.494Z,18.90
2023-07-25T06:16:55.494Z,19.00
2023-07-25T06:19:22.722Z,19.20
2023-07-25T06:21:49.880Z,19.30
2023-07-25T06:24:17.242Z,19.40
2023-07-25T06:26:44.282Z,19.60
2023-07-25T06:29:11.083Z,19.70
2023-07-25T06:31:38.230Z,19.80
2023-07-25T06:34:05.924Z,19.70
2023-07-25T06:36:33.225Z,19.70
2023-07-25T06:39:00.158Z,19.60
2023-07-25T06:41:27.583Z,19.60
2023-07-25T06:43:59.267Z,19.60
2023-07-25T06:46:26.463Z,19.60
2023-07-25T06:48:53.618Z,19.50
2023-07-25T06:51:21.553Z,19.50
2023-07-25T06:53:48.636Z,19.50
2023-07-25T06:56:15.696Z,19.50
2023-07-25T06:58:42.681Z,19.50
2023-07-25T07:01:09.688Z,19.60
2023-07-25T07:03:36.602Z,19.60
2023-07-25T07:06:03.585Z,19.70
2023-07-25T07:08:30.520Z,19.70
2023-07-25T07:10:57.474Z,19.80
2023-07-25T07:13:24.624Z,19.90
2023-07-25T07:15:51.552Z,20.00
2023-07-25T07:18:18.913Z,20.10
2023-07-25T07:20:49.766Z,20.10
2023-07-25T07:23:17.558Z,20.30
2023-07-25T07:25:45.675Z,20.50
2023-07-25T07:28:13.929Z,20.80
2023-07-25T07:30:40.923Z,21.00
2023-07-25T07:33:07.880Z,21.20
2023-07-25T07:35:34.805Z,21.40
2023-07-25T07:38:01.767Z,21.50
2023-07-25T07:40:29.717Z,21.50
2023-07-25T07:42:56.633Z,21.50
2023-07-25T07:45:24.994Z,21.40
2023-07-25T07:47:52.827Z,21.30
2023-07-25T07:50:20.195Z,21.30
2023-07-25T07:52:47.660Z,21.30
2023-07-25T07:55:15.093Z,21.50
2023-07-25T07:57:43.833Z,21.60
2023-07-25T08:00:13.001Z,21.70
2023-07-25T08:02:40.179Z,21.80
2023-07-25T08:05:07.440Z,21.90
2023-07-25T08:07:34.400Z,22.00
2023-07-25T08:10:01.675Z,21.90
2023-07-25T08:12:28.651Z,21.90
2023-07-25T08:14:55.494Z,21.80
2023-07-25T08:17:22.444Z,21.70
2023-07-25T08:19:49.974Z,21.70
2023-07-25T08:22:17.059Z,21.70
2023-07-25T08:24:44.095Z,21.80
2023-07-25T08:27:11.119Z,21.80
2023-07-25T08:29:42.666Z,21.70
2023-07-25T08:32:10.839Z,21.70
2023-07-25T08:34:38.921Z,21.70
2023-07-25T08:37:07.258Z,21.70
2023-07-25T08:39:35.042Z,21.70
2023-07-25T08:42:06.109Z,21.60
2023-07-25T08:44:35.430Z,21.60
2023-07-25T08:47:06.994Z,21.50
2023-07-25T08:49:37.048Z,21.50
2023-07-25T08:52:05.433Z,21.50
2023-07-25T08:54:37.957Z,21.50
2023-07-25T08:57:05.873Z,21.50
2023-07-25T08:59:33.246Z,21.40
2023-07-25T09:02:01.552Z,21.30
2023-07-25T09:04:29.628Z,21.10
2023-07-25T09:06:56.566Z,21.00
2023-07-25T09:09:24.529Z,20.90
2023-07-25T09:11:52.046Z,20.80
2023-07-25T09:14:19.053Z,20.70
2023-07-25T09:16:45.988Z,20.70
2023-07-25T09:19:13.877Z,20.60
2023-07-25T09:21:51.527Z,20.50
2023-07-25T09:24:18.647Z,20.30
2023-07-25T09:26:52.654Z,20.20
2023-07-25T09:29:21.819Z,20.10
2023-07-25T09:31:48.825Z,20.00
2023-07-25T09:34:18.561Z,19.90
2023-07-25T09:36:47.739Z,19.80
2023-07-25T09:39:15.176Z,19.70
2023-07-25T09:41:42.107Z,19.50
2023-07-25T09:44:10.003Z,19.30
2023-07-25T09:46:36.868Z,19.10
2023-07-25T09:49:03.798Z,18.90
2023-07-25T09:51:32.535Z,18.80
2023-07-25T09:53:59.590Z,18.70
2023-07-25T09:56:27.661Z,18.60
2023-07-25T10:01:27.425Z,18.60
2023-07-25T10:03:54.999Z,18.60
2023-07-25T10:06:22.483Z,18.60
2023-07-25T10:08:49.977Z,18.70
2023-07-25T10:11:17.562Z,18.80
2023-07-25T10:13:45.011Z,18.90
2023-07-25T10:16:15.694Z,19.00
2023-07-25T10:18:42.825Z,19.20
2023-07-25T10:21:12.415Z,19.50
2023-07-25T10:23:39.491Z,19.70
2023-07-25T10:26:14.647Z,20.00
2023-07-25T10:28:42.111Z,20.20
2023-07-25T10:31:09.945Z,20.50
2023-07-25T10:33:40.106Z,20.80
2023-07-25T10:36:21.531Z,21.10
2023-07-25T10:38:49.837Z,21.60
2023-07-25T10:41:17.655Z,22.00
2023-07-25T10:43:47.720Z,22.50
2023-07-25T10:46:23.238Z,23.00
2023-07-25T10:48:59.609Z,23.70
2023-07-25T10:51:49.699Z,24.10
2023-07-25T10:54:18.481Z,24.80
2023-07-25T10:57:10.325Z,25.50
2023-07-25T11:00:05.385Z,25.70
2023-07-25T11:02:35.228Z,25.80
2023-07-25T11:05:14.405Z,26.00
2023-07-25T11:07:48.234Z,25.90
2023-07-25T11:10:27.977Z,25.60
2023-07-25T11:12:59.835Z,25.30
2023-07-25T11:17:57.821Z,25.40
2023-07-25T11:20:24.886Z,25.60
2023-07-25T11:22:53.344Z,26.90
2023-07-25T11:25:20.922Z,28.60
2023-07-25T11:27:48.809Z,30.20
2023-07-25T11:30:19.833Z,31.60
2023-07-25T11:32:48.779Z,32.20
2023-07-25T11:35:19.062Z,31.80
2023-07-25T11:37:47.388Z,31.90
2023-07-25T11:40:20.970Z,31.70
2023-07-25T11:42:50.134Z,30.90
2023-07-25T11:45:18.222Z,30.00
2023-07-25T11:47:48.373Z,29.30
2023-07-25T11:50:24.451Z,28.50
2023-07-25T11:52:54.573Z,27.70
2023-07-25T11:55:21.549Z,26.90
2023-07-25T11:57:48.520Z,26.40
2023-07-25T12:00:17.310Z,25.90
2023-07-25T12:02:44.679Z,25.50
2023-07-25T12:05:28.249Z,25.00
2023-07-25T12:08:03.618Z,24.60
2023-07-25T12:10:32.485Z,24.40
2023-07-25T12:13:00.600Z,24.10
2023-07-25T12:15:50.922Z,23.80
2023-07-25T12:18:30.560Z,23.50
2023-07-25T12:21:01.403Z,23.30
2023-07-25T12:23:32.203Z,23.00
2023-07-25T12:26:02.063Z,22.90
2023-07-25T12:28:45.981Z,22.80
2023-07-25T12:31:14.135Z,22.70
2023-07-25T12:33:42.747Z,22.60
2023-07-25T12:36:09.528Z,22.60
2023-07-25T12:38:36.519Z,22.50
2023-07-25T12:41:04.166Z,22.40
2023-07-25T12:43:31.399Z,22.40
2023-07-25T12:45:58.486Z,22.30
2023-07-25T12:48:25.348Z,22.30
2023-07-25T12:50:52.379Z,22.30
2023-07-25T12:53:19.285Z,22.30
2023-07-25T12:55:46.226Z,22.20
2023-07-25T12:58:13.093Z,22.20
2023-07-25T13:00:42.154Z,22.20
2023-07-25T13:03:10.090Z,22.20
2023-07-25T13:05:37.149Z,22.20
2023-07-25T13:08:04.290Z,22.10
2023-07-25T13:10:31.351Z,22.00
2023-07-25T13:12:58.165Z,21.80
2023-07-25T13:15:25.055Z,21.70
2023-07-25T13:17:51.991Z,21.60
2023-07-25T13:20:19.020Z,21.50
2023-07-25T13:22:45.928Z,21.20
2023-07-25T13:25:13.136Z,21.00
2023-07-25T13:27:40.320Z,20.70
2023-07-25T13:30:08.359Z,20.50
2023-07-25T13:32:35.442Z,20.20
2023-07-25T13:35:02.366Z,20.00
2023-07-25T13:37:29.258Z,19.80
2023-07-25T13:39:56.027Z,19.40
2023-07-25T13:42:23.887Z,19.10
2023-07-25T13:44:50.817Z,18.90
2023-07-25T13:47:17.880Z,18.90
2023-07-25T13:49:44.968Z,18.70
2023-07-25T13:52:11.931Z,18.60
2023-07-25T13:54:38.995Z,18.50
2023-07-25T13:57:06.230Z,18.60
2023-07-25T13:59:33.042Z,18.60
2023-07-25T14:02:01.522Z,18.70
2023-07-25T14:04:29.800Z,18.90
2023-07-25T14:06:56.771Z,19.20
2023-07-25T14:09:23.699Z,19.50
2023-07-25T14:11:50.964Z,19.70
2023-07-25T14:14:18.082Z,19.90
2023-07-25T14:16:44.999Z,20.20
2023-07-25T14:19:11.931Z,20.60
2023-07-25T14:21:38.754Z,20.90
2023-07-25T14:24:06.757Z,21.10
2023-07-25T14:26:36.692Z,21.20
2023-07-25T14:29:04.618Z,21.30
2023-07-25T14:31:31.731Z,21.30
2023-07-25T14:33:59.615Z,21.40
2023-07-25T14:36:26.541Z,21.50
2023-07-25T14:38:53.453Z,21.50
2023-07-25T14:41:20.439Z,21.50
2023-07-25T14:43:47.355Z,21.60
2023-07-25T14:46:14.315Z,21.80
2023-07-25T14:48:41.164Z,21.90
2023-07-25T14:51:08.149Z,21.90
2023-07-25T14:53:35.078Z,21.90
2023-07-25T14:56:01.888Z,21.60
2023-07-25T14:58:29.140Z,21.40
2023-07-25T15:00:56.500Z,21.30
2023-07-25T15:03:23.787Z,21.20
2023-07-25T15:05:51.954Z,21.20
2023-07-25T15:08:18.832Z,21.20
2023-07-25T15:10:45.904Z,21.20
2023-07-25T15:13:12.884Z,21.20
2023-07-25T15:15:39.740Z,21.00
2023-07-25T15:18:08.770Z,20.70
2023-07-25T15:20:35.932Z,20.50
2023-07-25T15:23:02.907Z,20.20
2023-07-25T15:25:29.670Z,20.10
2023-07-25T15:27:56.463Z,20.00
2023-07-25T15:30:23.369Z,19.90
2023-07-25T15:32:50.353Z,19.80
2023-07-25T15:35:17.491Z,19.70
2023-07-25T15:37:44.306Z,19.70
2023-07-25T15:40:11.542Z,19.80
2023-07-25T15:42:39.309Z,19.80
2023-07-25T15:45:06.579Z,19.90
2023-07-25T15:47:33.443Z,20.00
2023-07-25T15:50:00.340Z,20.10
2023-07-25T15:52:27.298Z,20.00
2023-07-25T15:54:54.062Z,20.00
2023-07-25T15:57:20.906Z,20.00
2023-07-25T15:59:47.778Z,19.90
2023-07-25T16:02:14.627Z,19.80
2023-07-25T16:04:41.413Z,19.60
2023-07-25T16:07:08.243Z,19.40
2023-07-25T16:09:35.064Z,19.20
2023-07-25T16:12:02.217Z,19.10
2023-07-25T16:14:29.118Z,18.90
2023-07-25T16:16:56.011Z,18.90
2023-07-25T16:19:23.014Z,18.80
2023-07-25T16:21:49.843Z,18.70
2023-07-25T16:24:16.931Z,18.70
2023-07-25T16:26:43.687Z,18.50
2023-07-25T16:29:10.563Z,18.50
2023-07-25T16:31:37.430Z,18.30
2023-07-25T16:34:05.292Z,18.30
2023-07-25T16:36:32.530Z,18.20
2023-07-25T16:38:59.391Z,18.20
2023-07-25T16:41:26.251Z,18.10
2023-07-25T16:43:53.220Z,18.10
2023-07-25T16:46:20.294Z,18.00
2023-07-25T16:48:47.297Z,17.90
2023-07-25T16:51:14.312Z,17.80
2023-07-25T16:53:41.115Z,17.70
2023-07-25T16:56:08.166Z,17.70
2023-07-25T16:58:35.823Z,17.60
2023-07-25T17:01:04.463Z,17.60
2023-07-25T17:03:31.567Z,17.60
2023-07-25T17:05:59.124Z,17.60
2023-07-25T17:08:26.868Z,17.60
2023-07-25T17:10:53.770Z,17.70
2023-07-25T17:13:20.930Z,17.70
2023-07-25T17:15:48.023Z,17.70
2023-07-25T17:18:14.848Z,17.70
2023-07-25T17:20:41.770Z,17.80
2023-07-25T17:23:08.805Z,17.80
2023-07-25T17:25:37.658Z,17.80
2023-07-25T17:28:04.694Z,17.80
2023-07-25T17:30:31.501Z,17.90
2023-07-25T17:33:01.324Z,17.90
2023-07-25T17:35:37.377Z,17.90
2023-07-25T17:38:05.250Z,17.90
2023-07-25T17:40:32.608Z,17.90
2023-07-25T17:42:59.488Z,17.80
2023-07-25T17:45:26.358Z,17.80
2023-07-25T17:47:53.322Z,17.80
2023-07-25T17:50:20.536Z,17.80
2023-07-25T17:52:47.533Z,17.70
2023-07-25T17:55:14.527Z,17.70
2023-07-25T17:57:42.165Z,17.70
2023-07-25T18:00:10.231Z,17.70
2023-07-25T18:02:39.945Z,17.70
2023-07-25T18:05:07.389Z,17.60
2023-07-25T18:07:34.195Z,17.60
2023-07-25T18:10:01.378Z,17.50
2023-07-25T18:12:28.303Z,17.50
2023-07-25T18:14:55.232Z,17.50
2023-07-25T18:17:22.776Z,17.40
2023-07-25T18:19:49.783Z,17.40
2023-07-25T18:22:16.603Z,17.50
2023-07-25T18:24:43.503Z,17.40
2023-07-25T18:27:10.466Z,17.40
2023-07-25T18:29:37.267Z,17.40
2023-07-25T18:32:04.345Z,17.30
2023-07-25T18:34:31.118Z,17.20
2023-07-25T18:36:57.981Z,17.20
2023-07-25T18:39:24.824Z,17.20
2023-07-25T18:41:51.709Z,17.10
2023-07-25T18:44:18.544Z,17.10
2023-07-25T18:46:45.506Z,17.00
2023-07-25T18:49:12.444Z,17.00
2023-07-25T18:51:39.257Z,17.00
2023-07-25T18:54:06.331Z,17.00
2023-07-25T18:56:34.137Z,16.90
2023-07-25T18:59:02.555Z,16.90
2023-07-25T19:01:29.556Z,16.80
2023-07-25T19:03:58.442Z,16.70
2023-07-25T19:06:25.669Z,16.60
2023-07-25T19:08:53.468Z,16.60
2023-07-25T19:11:20.447Z,16.50
2023-07-25T19:13:47.445Z,16.30
2023-07-25T19:16:14.389Z,16.20
2023-07-25T19:18:42.257Z,16.20
2023-07-25T19:21:09.102Z,16.10
2023-07-25T19:23:36.022Z,16.10
2023-07-25T19:26:03.333Z,16.00
2023-07-25T19:28:30.542Z,16.00
2023-07-25T19:30:58.746Z,16.00
2023-07-25T19:33:31.194Z,15.90
2023-07-25T19:36:00.405Z,15.90
2023-07-25T19:38:28.626Z,15.80
2023-07-25T19:40:55.821Z,15.80
2023-07-25T19:43:23.073Z,15.80
2023-07-25T19:45:50.069Z,15.80
2023-07-25T19:48:17.974Z,15.90
2023-07-25T19:50:47.763Z,15.90
2023-07-25T19:53:16.666Z,16.00
2023-07-25T19:55:43.864Z,16.00
2023-07-25T19:58:10.843Z,16.10
2023-07-25T20:00:38.380Z,16.10
2023-07-25T20:03:05.829Z,16.20
2023-07-25T20:05:32.847Z,16.20
2023-07-25T20:07:59.722Z,16.20
2023-07-25T20:10:26.711Z,16.20
2023-07-25T20:12:53.757Z,16.20
2023-07-25T20:15:20.691Z,16.10
2023-07-25T20:17:48.336Z,16.20
2023-07-25T20:20:15.389Z,16.20
2023-07-25T20:22:42.410Z,16.20
2023-07-25T20:25:11.283Z,16.20
2023-07-25T20:27:38.573Z,16.30
2023-07-25T20:30:06.360Z,16.30
2023-07-25T20:32:33.530Z,16.30
2023-07-25T20:35:00.556Z,16.20
2023-07-25T20:37:28.996Z,16.10
2023-07-25T20:39:56.766Z,16.00
2023-07-25T20:42:23.936Z,16.00
2023-07-25T20:44:50.965Z,16.00
2023-07-25T20:47:17.779Z,16.00
2023-07-25T20:49:45.509Z,15.90
2023-07-25T20:52:12.309Z,16.00
2023-07-25T20:54:39.120Z,16.00
2023-07-25T20:57:06.439Z,16.10
2023-07-25T20:59:33.293Z,16.10
2023-07-25T21:02:00.168Z,16.20
2023-07-25T21:04:28.747Z,16.10
2023-07-25T21:06:56.304Z,16.10
2023-07-25T21:09:23.264Z,16.10
2023-07-25T21:11:50.032Z,16.20
2023-07-25T21:14:16.882Z,16.20
2023-07-25T21:16:43.749Z,16.20
2023-07-25T21:19:10.553Z,16.10
2023-07-25T21:21:37.397Z,16.00
2023-07-25T21:24:04.562Z,16.00
2023-07-25T21:26:31.617Z,16.00
2023-07-25T21:28:58.618Z,16.00
2023-07-25T21:31:25.789Z,16.00
2023-07-25T21:33:52.781Z,15.90
2023-07-25T21:36:19.731Z,15.90
2023-07-25T21:38:46.528Z,16.00
2023-07-25T21:41:13.411Z,16.00
2023-07-25T21:43:41.517Z,16.10
2023-07-25T21:46:08.659Z,16.20
2023-07-25T21:48:35.689Z,16.20
2023-07-25T21:51:02.638Z,16.20
2023-07-25T21:53:30.227Z,16.20
2023-07-25T21:55:58.582Z,16.20
2023-07-25T21:58:27.417Z,16.20
2023-07-25T22:00:58.843Z,16.20
2023-07-25T22:03:29.840Z,16.10
2023-07-25T22:05:58.205Z,16.00
2023-07-25T22:08:25.298Z,16.00
2023-07-25T22:10:54.164Z,16.00
2023-07-25T22:13:21.694Z,16.00
2023-07-25T22:15:48.620Z,16.00
2023-07-25T22:18:15.654Z,15.90
2023-07-25T22:20:51.474Z,15.90
2023-07-25T22:23:20.074Z,15.90
2023-07-25T22:25:47.183Z,15.80
2023-07-25T22:28:14.080Z,15.80
2023-07-25T22:30:40.928Z,15.70
2023-07-25T22:33:07.704Z,15.70
2023-07-25T22:35:35.571Z,15.60
2023-07-25T22:38:04.054Z,15.60
2023-07-25T22:40:31.416Z,15.60
2023-07-25T22:42:58.355Z,15.60
2023-07-25T22:45:26.867Z,15.60
2023-07-25T22:47:54.267Z,15.60
2023-07-25T22:50:21.287Z,15.60
2023-07-25T22:52:48.521Z,15.70
2023-07-25T22:55:18.589Z,15.70
2023-07-25T22:57:45.913Z,15.70
2023-07-25T23:00:13.353Z,15.70
2023-07-25T23:02:40.545Z,15.70
2023-07-25T23:05:07.957Z,15.60
2023-07-25T23:07:35.466Z,15.60
2023-07-25T23:10:02.979Z,15.60
2023-07-25T23:12:30.004Z,15.50
2023-07-25T23:14:56.936Z,15.50
2023-07-25T23:17:23.773Z,15.50
2023-07-25T23:19:50.698Z,15.50
2023-07-25T23:22:17.566Z,15.50
2023-07-25T23:24:44.447Z,15.50
2023-07-25T23:27:11.369Z,15.50
2023-07-25T23:29:38.303Z,15.60
2023-07-25T23:32:05.712Z,15.60
2023-07-25T23:34:55.052Z,15.60
2023-07-25T23:37:22.056Z,15.70
2023-07-25T23:39:49.236Z,15.70
2023-07-25T23:42:16.109Z,15.70
2023-07-25T23:44:43.138Z,15.70
2023-07-25T23:47:12.580Z,15.70
2023-07-25T23:49:39.809Z,15.70
2023-07-25T23:52:07.507Z,15.70
2023-07-25T23:54:34.616Z,15.70
2023-07-25T23:57:05.957Z,15.70
2023-07-25T23:59:33.147Z,15.80
